Ride Results

Central Ranges Endurance Ride (14-11-2020)
Ride distance: 80.0 km

Outcomes - Central Ranges Endurance Ride (14-11-2020)
Division No. of Entries Retired / DNE Completed Withdrawn Ineligible V/O Percentage Completed
HW 4 - 4 - - - 100.00%
MW 11 - 6 1 - 4 54.55%
LW 17 - 17 - - - 100.00%
JN 6 - 4 - - 2 66.67%
Totals 38 - 31 1 - 6 81.58%
Results - Central Ranges Endurance Ride (14-11-2020)
No. Rider Horse Place Time Leg Speeds Total
Km/Hr
H/R bpm
Heavyweight
128 Allan Caslick A'Landell Jester 1 (BC) 5:13:00 13.1, 18.3 15.34 35, 37, 46 (Avg:41)
89 Brian Swan Arabesque Abdul 2 6:22:00 11.5, 13.7 12.57 32, 48, 48 (Avg:48)
107 Jason Duff Imparja Mokka 3 7:45:00 8.7, 12.6 10.32 40, 36, 44 (Avg:40)
87 Ian Dreghorn Ausden Nile Prins 4 8:00:00 9.1, 10.9 10.00 37, 48, 42 (Avg:45)
Middleweight
111 Darryl King James Bonn 1 (BC) 5:13:00 13.2, 18.1 15.34 30, 44, 38 (Avg:41)
119 Allix Jones Shellal Jive 2 6:15:00 12.4, 13.1 12.80 40, 55, 57 (Avg:56)
109 Noni Seagrim Coolinda Park Words of Wisdom 3 7:09:00 9.6, 13.2 11.19 36, 48, 40 (Avg:44)
61 Renee Kirk Garnee Viper 4 7:40:00 8.7, 12.9 10.43 36, 44, 42 (Avg:43)
77 Jennifer Gilbertson All Aglow At Webbscreek 5 8:05:00 8.6, 11.6 9.90 36, 48, 59 (Avg:53)
115 Fiona Meller Fairview Sweet Magieca 5 8:05:00 8.6, 11.4 9.90 35, 32, 48 (Avg:40)
125 Ian Curtis Rosevale Park Rashid Heart Rate L2 0:00:00 12.3, 12.8 - 34, 54, 65 (Avg:59)
97 Troy Rimmer Henley Farm Rakkad Lame L2 0:00:00 12.4, 13.1 - 40, 44, 48 (Avg:46)
85 Deidre Wilcock Webbs Creek Cattle Baron Lame L2 0:00:00 8.6, 11.6 - 36, 52, 54 (Avg:53)
120 Jesse Buchan Mountain Ash Tabasco W/D after vetting L1 0:00:00 - - 36, 44 (Avg:44)
65 Jane Paroissien Cherrington Request Lame L1 0:00:00 8.6 - 41, 52 (Avg:52)
Lightweight
67 Dianne Luker Sallydale Wings on Fire 1 (BC) 5:15:00 13.1, 18.0 15.24 36, 44, 38 (Avg:41)
122 Monica Ballard Birrali Lawrence 2 5:45:00 12.5, 15.5 13.91 30, 48, 50 (Avg:49)
91 Fia Hasko-Stewart Blake's Heaven Adventuress 2 5:45:00 12.5, 15.5 13.91 38, 42, 44 (Avg:43)
75 Sue Todd Shakari Bear 4 6:22:00 11.5, 13.7 12.57 31, 44, 43 (Avg:43)
95 Vic Alran River Oak Nullabor 5 6:28:00 10.6, 14.8 12.37 40, 44, 40 (Avg:42)
105 Clare Fleming Warrawee Gay Paree 5 6:28:00 10.6, 14.8 12.37 35, 38, 34 (Avg:36)
71 Leanne Holz Flemingo Papilion 5 6:28:00 10.6, 14.8 12.37 36, 42, 39 (Avg:40)
73 Cheny Collins Alexandria 8 6:57:00 10.7, 12.4 11.51 38, 34, 39 (Avg:36)
103 Mary Hollingsworth Sansa 8 6:57:00 10.7, 12.3 11.51 44, 40, 48 (Avg:44)
123 Tracy-Lee Cossor Future Dream Savannah 10 7:04:00 9.8, 13.3 11.32 42, 48, 52 (Avg:50)
63 Susan Woodward Amarin Brindi 11 7:05:00 9.8, 13.1 11.29 31, 38, 42 (Avg:40)
101 Sorsha Stuart-Rokvic Coolinda Park Winston 12 7:09:00 9.6, 13.2 11.19 36, 44, 46 (Avg:45)
79 Essy Mountford Tonki Dee Boo Allure 13 7:37:00 8.9, 12.7 10.50 32, 34, 52 (Avg:43)
81 Cherry Cummins Mountain Breeze Jacobite 14 8:00:00 9.1, 10.9 10.00 40, 40, 48 (Avg:44)
4 Linda Logan Willow Valley Dartanyan 15 8:02:00 8.9, 11.1 9.96 34, 33, 44 (Avg:38)
129 Talea Hasko-Stewart Blake's Heaven Bombora 16 8:09:00 8.3, 11.9 9.82 36, 45, 32 (Avg:38)
93 Celia Hodgson Blake's Heaven Avalon 16 8:09:00 8.3, 11.9 9.82 38, 44, 48 (Avg:46)
Junior
69 Modena Schofield Kharnivale EP 1 7:05:00 9.8, 13.1 11.29 33, 52, 48 (Avg:50)
126 Tahnaya Mercieca Henley Farm Fursan 2 (BC) 7:09:00 9.6, 13.2 11.19 40, 48, 52 (Avg:50)
127 Kaitlyn Mercieca Milandi Molly 3 7:40:00 8.7, 12.9 10.43 40, 48, 48 (Avg:48)
83 Bella Duff Imparja Kartanya 4 7:45:00 8.7, 12.6 10.32 36, 32, 56 (Avg:44)
121 Emma Cole Sienna Faith Heart Rate L1 0:00:00 8.9 - 37, 64 (Avg:64)
124 Hannah Cossor Future Dream Amelia Lame L1 0:00:00 9.8 - 30, 44 (Avg:44)